الصفحة الرئيسية
METAR-TAF:

METAR-TAF

مطار :

Pointe-à-Pitre, جوادلوب

دائرة عرض: 16-16N, خط طول: 061-31W, ارتفاع: 11 متر

مراقبة الطقس الحالي

تاريخ ووقت الإصدار 19 دقيقة قبل الساعة 23:30UTC
ريح 6 عقدة من الشرق
درجة الحرارة 26°درجة مئوية
الرطوبة 79%
ضغط 1010 hPa
الرؤية 10 كم أو أكثر
الغيوم لا تقل 1500 م ولا وجود لمزنة ركامية السحاب الأسود

METAR: TFFR 202330Z AUTO 08006KT CAVOK 26/22 Q1010 TEMPO 4000 SHRA SCT018TCU

زمن: 19:49 (23:49 UTC)

توقعات

تاريخ ووقت الإصدار 1ساعة و 49 دقيقة قبل الساعة 22:00UTC
التوقعات صالحة من21 الساعة 00 UTC إلى 21 الساعة 24 UTC
ريح 9 عقدة من الشرق
الرؤية 10 كم أو أكثر
غيوم متفرقة على ارتفاع 3000 قدم
نظرية الاحتمالات 30% :
مؤقت
من 21 الساعة 00 UTC إلى 21 الساعة 24 UTC
الرؤية: 4000 متر
غيوم متفرقة على ارتفاع 1800 قدم, مزن ركامية عمودية.
زخات من المطر
نظرية الاحتمالات 30% :
مؤقت
من 21 الساعة 16 UTC إلى 21 الساعة 22 UTC
الرؤية: 2000 متر
غيوم متفرقة على ارتفاع 1500 قدم, مزنة ركامية.
زخات من المطر

TAF: TFFR 202200Z 2100/2124 08009KT 9999 SCT030 PROB30 TEMPO 2100/2124 4000 SHRA SCT018TCU PROB30 TEMPO 2116/2122 2000 SHRA SCT015CB

أرصاد الطقس والتوقعات من أكثر من 4000 مطار (تقارير الطقس للمطار METAR والتنبؤ بالطقس بالمطارTAF).

المحطات المتاحة هي النقط الصفراء والحمراء على الخريطة.

حرك المؤشر فوق النقطة لمعرفة اسم المحطة.

ثم انقر لمعرفة أرصاد وتوقعات الطقس.

لتغيير الخارطة: اضغط على الأزرار الخضراء مع رمز الصليب الأسود للتكبير. على الزر الأخضر مع شرطة للتصغير، أو على الأسهم الخضراء للخرائط المجاورة.


METAR-TAF: